Oceanis — SVBC9 — position and weather

sailwx.info

Track history (hours):
 
Tides and Currents Weather Stations Pressure Air Temp Water Temp Dewpoint Dewpoint Depression Visibility Wind Speed Wind Dir Waves Ship Positions

Oceanis

Last reported at 2017-Jun-11 16:31 UTC. Time now 2017-Jun-23 10:36 UTC.
Position N 02°01' E 102°12'.
Warning: this ship's position is 11 days out of date.

Length 330 m; draft 11.1 m.

Type: Tanker. MMSI: 241089000.

Date/timePositionNaut miles runAvg speedWind from/ knotsBaromVisibWave heightAir tempDewpointWater temp
2017-Jun-11 16:31N 02°01' E 102°12'115.7
2017-Jun-11 16:25N 02°00' E 102°14'615.0
2017-Jun-11 15:59N 01°56' E 102°18'714.7
2017-Jun-11 15:30N 01°53' E 102°25'914.4
2017-Jun-11 14:53N 01°49' E 102°33'514.3
2017-Jun-11 14:30N 01°47' E 102°38'4914.8
2017-Jun-11 11:10N 01°19' E 103°19'317.4
2017-Jun-11 10:59N 01°17' E 103°21'816.8
2017-Jun-11 10:31N 01°13' E 103°28'816.5
2017-Jun-11 10:01N 01°11' E 103°36'815.4
2017-Jun-11 09:31N 01°09' E 103°43'816.4
2017-Jun-11 09:00N 01°12' E 103°51'815.4
2017-Jun-11 08:30N 01°15' E 103°58'4 8.7
2017-Jun-11 08:01N 01°17' E 104°02'2 4.2
2017-Jun-11 07:30N 01°18' E 104°04'0 0.2
2017-Jun-11 06:12N 01°18' E 104°03'0 0.1
2017-Jun-11 04:54N 01°18' E 104°04'0 0.0
2017-Jun-11 03:36N 01°18' E 104°04'0 0.0
2017-Jun-11 03:09N 01°18' E 104°04'0 0.0
2017-Jun-11 02:54N 01°18' E 104°04'0 0.1
2017-Jun-11 02:15N 01°18' E 104°04'0 0.1
2017-Jun-11 01:54N 01°18' E 104°04'0 0.2
2017-Jun-11 01:30N 01°18' E 104°04'0 0.0
2017-Jun-11 00:06N 01°18' E 104°04'0 0.2
2017-Jun-10 23:45N 01°18' E 104°04'0 0.0
2017-Jun-10 23:24N 01°18' E 104°04'0 0.1
2017-Jun-10 22:57N 01°18' E 104°04'0 0.0
2017-Jun-10 20:48N 01°18' E 104°04'0 0.0
2017-Jun-10 20:27N 01°18' E 104°04'0 0.0
2017-Jun-10 19:51N 01°18' E 104°04'0 0.0
2017-Jun-10 19:24N 01°18' E 104°04'0 0.0
2017-Jun-10 18:57N 01°18' E 104°04'0 0.0
2017-Jun-10 18:24N 01°18' E 104°04'0 0.0
2017-Jun-10 17:51N 01°18' E 104°04'0 0.0
2017-Jun-10 17:24N 01°18' E 104°04'0 0.0
2017-Jun-10 16:12N 01°18' E 104°04'0 0.1
2017-Jun-10 15:48N 01°18' E 104°04'0 0.0
2017-Jun-10 15:30N 01°18' E 104°04'0 0.0
2017-Jun-10 06:18N 01°18' E 104°03'1 2.6
2017-Jun-10 05:55N 01°18' E 104°04'2 4.2
2017-Jun-10 05:29N 01°18' E 104°06'0 0.8
2017-Jun-10 04:59N 01°18' E 104°07'1 2.5
2017-Jun-10 04:28N 01°17' E 104°08'3 5.5
2017-Jun-10 03:59N 01°17' E 104°10'3 5.8
2017-Jun-10 03:26N 01°18' E 104°14'  
Track history (hours):
 
Tides and Currents Weather Stations Pressure Air Temp Water Temp Dewpoint Dewpoint Depression Visibility Wind Speed Wind Dir Waves Ship Positions

Oceanis

Last reported at 2017-Jun-11 16:31 UTC. Time now 2017-Jun-23 10:36 UTC.
Position N 02°01' E 102°12'.
Warning: this ship's position is 11 days out of date.

Length 330 m; draft 11.1 m.

Type: Tanker. MMSI: 241089000.

Date/timePositionNaut miles runAvg speedWind from/ knotsBaromVisibWave heightAir tempDewpointWater temp
2017-Jun-11 16:31N 02°01' E 102°12'115.7
2017-Jun-11 16:25N 02°00' E 102°14'615.0
2017-Jun-11 15:59N 01°56' E 102°18'714.7
2017-Jun-11 15:30N 01°53' E 102°25'914.4
2017-Jun-11 14:53N 01°49' E 102°33'514.3
2017-Jun-11 14:30N 01°47' E 102°38'4914.8
2017-Jun-11 11:10N 01°19' E 103°19'317.4
2017-Jun-11 10:59N 01°17' E 103°21'816.8
2017-Jun-11 10:31N 01°13' E 103°28'816.5
2017-Jun-11 10:01N 01°11' E 103°36'815.4
2017-Jun-11 09:31N 01°09' E 103°43'816.4
2017-Jun-11 09:00N 01°12' E 103°51'815.4
2017-Jun-11 08:30N 01°15' E 103°58'4 8.7
2017-Jun-11 08:01N 01°17' E 104°02'2 4.2
2017-Jun-11 07:30N 01°18' E 104°04'0 0.2
2017-Jun-11 06:12N 01°18' E 104°03'0 0.1
2017-Jun-11 04:54N 01°18' E 104°04'0 0.0
2017-Jun-11 03:36N 01°18' E 104°04'0 0.0
2017-Jun-11 03:09N 01°18' E 104°04'0 0.0
2017-Jun-11 02:54N 01°18' E 104°04'0 0.1
2017-Jun-11 02:15N 01°18' E 104°04'0 0.1
2017-Jun-11 01:54N 01°18' E 104°04'0 0.2
2017-Jun-11 01:30N 01°18' E 104°04'0 0.0
2017-Jun-11 00:06N 01°18' E 104°04'0 0.2
2017-Jun-10 23:45N 01°18' E 104°04'0 0.0
2017-Jun-10 23:24N 01°18' E 104°04'0 0.1
2017-Jun-10 22:57N 01°18' E 104°04'0 0.0
2017-Jun-10 20:48N 01°18' E 104°04'0 0.0
2017-Jun-10 20:27N 01°18' E 104°04'0 0.0
2017-Jun-10 19:51N 01°18' E 104°04'0 0.0
2017-Jun-10 19:24N 01°18' E 104°04'0 0.0
2017-Jun-10 18:57N 01°18' E 104°04'0 0.0
2017-Jun-10 18:24N 01°18' E 104°04'0 0.0
2017-Jun-10 17:51N 01°18' E 104°04'0 0.0
2017-Jun-10 17:24N 01°18' E 104°04'0 0.0
2017-Jun-10 16:12N 01°18' E 104°04'0 0.1
2017-Jun-10 15:48N 01°18' E 104°04'0 0.0
2017-Jun-10 15:30N 01°18' E 104°04'0 0.0
2017-Jun-10 06:18N 01°18' E 104°03'1 2.6
2017-Jun-10 05:55N 01°18' E 104°04'2 4.2
2017-Jun-10 05:29N 01°18' E 104°06'0 0.8
2017-Jun-10 04:59N 01°18' E 104°07'1 2.5
2017-Jun-10 04:28N 01°17' E 104°08'3 5.5
2017-Jun-10 03:59N 01°17' E 104°10'3 5.8
2017-Jun-10 03:26N 01°18' E 104°14'  

Dump ship's entire track history